sensor_id;sensor_type;location;lat;lon;timestamp;P1;durP1;ratioP1;P2;durP2;ratioP2
34565;SDS011;20803;42.676;26.348;2024-03-02T00:02:12;72.93;;;35.70;;
34565;SDS011;20803;42.676;26.348;2024-03-02T00:04:39;72.50;;;36.27;;
34565;SDS011;20803;42.676;26.348;2024-03-02T00:07:04;72.77;;;36.73;;
34565;SDS011;20803;42.676;26.348;2024-03-02T00:09:31;78.07;;;37.33;;
34565;SDS011;20803;42.676;26.348;2024-03-02T00:11:58;93.33;;;38.50;;
34565;SDS011;20803;42.676;26.348;2024-03-02T00:14:30;87.17;;;38.83;;
34565;SDS011;20803;42.676;26.348;2024-03-02T00:16:56;88.10;;;36.53;;
34565;SDS011;20803;42.676;26.348;2024-03-02T00:19:21;75.60;;;34.17;;
34565;SDS011;20803;42.676;26.348;2024-03-02T00:21:48;82.43;;;37.10;;
34565;SDS011;20803;42.676;26.348;2024-03-02T00:24:21;81.73;;;37.33;;
34565;SDS011;20803;42.676;26.348;2024-03-02T00:26:56;88.47;;;37.47;;
34565;SDS011;20803;42.676;26.348;2024-03-02T00:29:22;80.13;;;38.07;;
34565;SDS011;20803;42.676;26.348;2024-03-02T00:31:47;79.83;;;38.63;;
34565;SDS011;20803;42.676;26.348;2024-03-02T00:34:13;80.57;;;40.53;;
34565;SDS011;20803;42.676;26.348;2024-03-02T00:36:41;90.73;;;42.80;;
34565;SDS011;20803;42.676;26.348;2024-03-02T00:39:07;86.83;;;40.17;;
34565;SDS011;20803;42.676;26.348;2024-03-02T00:41:33;82.33;;;38.07;;
34565;SDS011;20803;42.676;26.348;2024-03-02T00:44:02;77.90;;;35.30;;
34565;SDS011;20803;42.676;26.348;2024-03-02T00:46:32;77.00;;;37.13;;
34565;SDS011;20803;42.676;26.348;2024-03-02T00:49:11;77.03;;;38.43;;
34565;SDS011;20803;42.676;26.348;2024-03-02T00:51:45;77.30;;;35.57;;
34565;SDS011;20803;42.676;26.348;2024-03-02T00:54:13;72.90;;;35.17;;
34565;SDS011;20803;42.676;26.348;2024-03-02T00:56:39;66.47;;;33.53;;
34565;SDS011;20803;42.676;26.348;2024-03-02T00:59:06;73.53;;;34.77;;
34565;SDS011;20803;42.676;26.348;2024-03-02T01:01:33;72.13;;;34.70;;
34565;SDS011;20803;42.676;26.348;2024-03-02T01:03:59;70.03;;;31.60;;
34565;SDS011;20803;42.676;26.348;2024-03-02T01:06:25;69.77;;;35.20;;
34565;SDS011;20803;42.676;26.348;2024-03-02T01:08:50;66.47;;;35.03;;
34565;SDS011;20803;42.676;26.348;2024-03-02T01:11:16;65.50;;;33.60;;
34565;SDS011;20803;42.676;26.348;2024-03-02T01:13:43;64.33;;;31.80;;
34565;SDS011;20803;42.676;26.348;2024-03-02T01:16:09;68.97;;;35.53;;
34565;SDS011;20803;42.676;26.348;2024-03-02T01:18:34;70.23;;;32.10;;
34565;SDS011;20803;42.676;26.348;2024-03-02T01:21:00;66.90;;;30.47;;
34565;SDS011;20803;42.676;26.348;2024-03-02T01:23:26;64.73;;;30.80;;
34565;SDS011;20803;42.676;26.348;2024-03-02T01:25:52;72.63;;;32.50;;
34565;SDS011;20803;42.676;26.348;2024-03-02T01:28:18;66.57;;;31.43;;
34565;SDS011;20803;42.676;26.348;2024-03-02T01:30:46;67.90;;;30.57;;
34565;SDS011;20803;42.676;26.348;2024-03-02T01:33:12;72.70;;;31.23;;
34565;SDS011;20803;42.676;26.348;2024-03-02T01:35:38;67.97;;;32.10;;
34565;SDS011;20803;42.676;26.348;2024-03-02T01:38:04;58.50;;;28.60;;
34565;SDS011;20803;42.676;26.348;2024-03-02T01:40:33;60.30;;;27.40;;
34565;SDS011;20803;42.676;26.348;2024-03-02T01:42:59;56.97;;;25.90;;
34565;SDS011;20803;42.676;26.348;2024-03-02T01:45:25;61.07;;;28.57;;
34565;SDS011;20803;42.676;26.348;2024-03-02T01:47:51;67.47;;;27.57;;
34565;SDS011;20803;42.676;26.348;2024-03-02T01:50:27;64.77;;;27.70;;
34565;SDS011;20803;42.676;26.348;2024-03-02T01:52:54;60.90;;;27.63;;
34565;SDS011;20803;42.676;26.348;2024-03-02T01:55:20;56.17;;;26.93;;
34565;SDS011;20803;42.676;26.348;2024-03-02T01:57:46;46.53;;;23.83;;
34565;SDS011;20803;42.676;26.348;2024-03-02T02:00:13;45.80;;;21.90;;
34565;SDS011;20803;42.676;26.348;2024-03-02T02:02:39;36.87;;;20.13;;
34565;SDS011;20803;42.676;26.348;2024-03-02T02:05:05;33.40;;;19.33;;
34565;SDS011;20803;42.676;26.348;2024-03-02T02:07:30;36.90;;;20.17;;
34565;SDS011;20803;42.676;26.348;2024-03-02T02:09:56;37.50;;;22.03;;
34565;SDS011;20803;42.676;26.348;2024-03-02T02:12:22;44.33;;;23.07;;
34565;SDS011;20803;42.676;26.348;2024-03-02T02:14:48;43.47;;;23.50;;
34565;SDS011;20803;42.676;26.348;2024-03-02T02:17:15;41.20;;;22.57;;
34565;SDS011;20803;42.676;26.348;2024-03-02T02:19:41;43.03;;;22.63;;
34565;SDS011;20803;42.676;26.348;2024-03-02T02:22:08;45.43;;;23.03;;
34565;SDS011;20803;42.676;26.348;2024-03-02T02:24:34;43.73;;;24.33;;
34565;SDS011;20803;42.676;26.348;2024-03-02T02:26:59;50.60;;;23.37;;
34565;SDS011;20803;42.676;26.348;2024-03-02T02:29:24;46.97;;;22.87;;
34565;SDS011;20803;42.676;26.348;2024-03-02T02:31:50;45.97;;;23.43;;
34565;SDS011;20803;42.676;26.348;2024-03-02T02:34:15;43.77;;;22.63;;
34565;SDS011;20803;42.676;26.348;2024-03-02T02:36:41;49.40;;;23.17;;
34565;SDS011;20803;42.676;26.348;2024-03-02T02:39:09;47.63;;;24.57;;
34565;SDS011;20803;42.676;26.348;2024-03-02T02:41:38;48.87;;;24.60;;
34565;SDS011;20803;42.676;26.348;2024-03-02T02:44:04;48.73;;;23.50;;
34565;SDS011;20803;42.676;26.348;2024-03-02T02:46:30;45.60;;;23.07;;
34565;SDS011;20803;42.676;26.348;2024-03-02T02:48:56;46.43;;;24.10;;
34565;SDS011;20803;42.676;26.348;2024-03-02T02:51:21;43.40;;;20.97;;
34565;SDS011;20803;42.676;26.348;2024-03-02T02:53:47;44.53;;;22.00;;
34565;SDS011;20803;42.676;26.348;2024-03-02T02:56:12;48.23;;;21.50;;
34565;SDS011;20803;42.676;26.348;2024-03-02T02:58:39;39.70;;;22.80;;
34565;SDS011;20803;42.676;26.348;2024-03-02T03:01:06;41.90;;;23.63;;
34565;SDS011;20803;42.676;26.348;2024-03-02T03:03:32;42.47;;;21.97;;
34565;SDS011;20803;42.676;26.348;2024-03-02T03:05:58;41.03;;;21.40;;
34565;SDS011;20803;42.676;26.348;2024-03-02T03:08:24;45.60;;;20.43;;
34565;SDS011;20803;42.676;26.348;2024-03-02T03:10:49;41.90;;;20.50;;
34565;SDS011;20803;42.676;26.348;2024-03-02T03:13:15;31.50;;;19.10;;
34565;SDS011;20803;42.676;26.348;2024-03-02T03:15:40;37.00;;;19.10;;
34565;SDS011;20803;42.676;26.348;2024-03-02T03:18:06;33.37;;;20.27;;
34565;SDS011;20803;42.676;26.348;2024-03-02T03:20:35;36.53;;;19.87;;
34565;SDS011;20803;42.676;26.348;2024-03-02T03:23:01;35.80;;;21.97;;
34565;SDS011;20803;42.676;26.348;2024-03-02T03:25:27;37.63;;;21.17;;
34565;SDS011;20803;42.676;26.348;2024-03-02T03:27:52;34.60;;;19.30;;
34565;SDS011;20803;42.676;26.348;2024-03-02T03:30:18;36.57;;;19.30;;
34565;SDS011;20803;42.676;26.348;2024-03-02T03:32:43;36.93;;;17.93;;
34565;SDS011;20803;42.676;26.348;2024-03-02T03:35:09;35.83;;;18.03;;
34565;SDS011;20803;42.676;26.348;2024-03-02T03:37:35;35.43;;;17.93;;
34565;SDS011;20803;42.676;26.348;2024-03-02T03:40:02;34.57;;;18.10;;
34565;SDS011;20803;42.676;26.348;2024-03-02T03:42:28;39.07;;;21.97;;
34565;SDS011;20803;42.676;26.348;2024-03-02T03:44:53;40.70;;;21.60;;
34565;SDS011;20803;42.676;26.348;2024-03-02T03:47:19;42.23;;;22.90;;
34565;SDS011;20803;42.676;26.348;2024-03-02T03:49:45;42.13;;;22.47;;
34565;SDS011;20803;42.676;26.348;2024-03-02T03:52:10;49.77;;;22.80;;
34565;SDS011;20803;42.676;26.348;2024-03-02T03:54:36;37.40;;;21.73;;
34565;SDS011;20803;42.676;26.348;2024-03-02T03:57:03;49.23;;;25.47;;
34565;SDS011;20803;42.676;26.348;2024-03-02T03:59:29;41.50;;;25.13;;
34565;SDS011;20803;42.676;26.348;2024-03-02T04:01:54;40.77;;;23.20;;
34565;SDS011;20803;42.676;26.348;2024-03-02T04:04:20;38.23;;;22.33;;
34565;SDS011;20803;42.676;26.348;2024-03-02T04:06:45;41.37;;;23.20;;
34565;SDS011;20803;42.676;26.348;2024-03-02T04:09:11;38.10;;;21.33;;
34565;SDS011;20803;42.676;26.348;2024-03-02T04:11:36;39.47;;;21.07;;
34565;SDS011;20803;42.676;26.348;2024-03-02T04:14:02;36.77;;;19.87;;
34565;SDS011;20803;42.676;26.348;2024-03-02T04:16:27;38.90;;;19.33;;
34565;SDS011;20803;42.676;26.348;2024-03-02T04:18:53;38.33;;;18.83;;
34565;SDS011;20803;42.676;26.348;2024-03-02T04:21:19;35.43;;;18.90;;
34565;SDS011;20803;42.676;26.348;2024-03-02T04:23:46;32.60;;;18.77;;
34565;SDS011;20803;42.676;26.348;2024-03-02T04:26:12;35.43;;;20.03;;
34565;SDS011;20803;42.676;26.348;2024-03-02T04:28:37;36.27;;;19.83;;
34565;SDS011;20803;42.676;26.348;2024-03-02T04:31:03;35.77;;;21.60;;
34565;SDS011;20803;42.676;26.348;2024-03-02T04:33:28;40.00;;;21.27;;
34565;SDS011;20803;42.676;26.348;2024-03-02T04:35:54;44.80;;;23.27;;
34565;SDS011;20803;42.676;26.348;2024-03-02T04:38:19;43.27;;;24.70;;
34565;SDS011;20803;42.676;26.348;2024-03-02T04:40:45;39.27;;;25.33;;
34565;SDS011;20803;42.676;26.348;2024-03-02T04:43:10;43.20;;;23.93;;
34565;SDS011;20803;42.676;26.348;2024-03-02T04:45:40;39.93;;;21.83;;
34565;SDS011;20803;42.676;26.348;2024-03-02T04:48:05;40.37;;;23.27;;
34565;SDS011;20803;42.676;26.348;2024-03-02T04:50:31;45.10;;;24.83;;
34565;SDS011;20803;42.676;26.348;2024-03-02T04:52:57;46.27;;;24.97;;
34565;SDS011;20803;42.676;26.348;2024-03-02T04:55:22;44.63;;;24.30;;
34565;SDS011;20803;42.676;26.348;2024-03-02T04:57:53;43.60;;;24.33;;
34565;SDS011;20803;42.676;26.348;2024-03-02T05:00:22;43.50;;;23.97;;
34565;SDS011;20803;42.676;26.348;2024-03-02T05:02:47;49.27;;;23.77;;
34565;SDS011;20803;42.676;26.348;2024-03-02T05:05:13;50.00;;;24.83;;
34565;SDS011;20803;42.676;26.348;2024-03-02T05:07:40;50.83;;;23.57;;
34565;SDS011;20803;42.676;26.348;2024-03-02T05:10:07;43.37;;;23.83;;
34565;SDS011;20803;42.676;26.348;2024-03-02T05:12:34;51.17;;;25.23;;
34565;SDS011;20803;42.676;26.348;2024-03-02T05:15:20;48.63;;;23.93;;
34565;SDS011;20803;42.676;26.348;2024-03-02T05:17:46;47.03;;;24.40;;
34565;SDS011;20803;42.676;26.348;2024-03-02T05:20:12;54.13;;;25.73;;
34565;SDS011;20803;42.676;26.348;2024-03-02T05:22:38;48.73;;;25.67;;
34565;SDS011;20803;42.676;26.348;2024-03-02T05:25:04;52.93;;;26.43;;
34565;SDS011;20803;42.676;26.348;2024-03-02T05:27:30;57.23;;;27.40;;
34565;SDS011;20803;42.676;26.348;2024-03-02T05:29:58;57.90;;;26.87;;
34565;SDS011;20803;42.676;26.348;2024-03-02T05:32:23;61.20;;;27.70;;
34565;SDS011;20803;42.676;26.348;2024-03-02T05:34:49;52.17;;;24.97;;
34565;SDS011;20803;42.676;26.348;2024-03-02T05:37:16;47.87;;;24.03;;
34565;SDS011;20803;42.676;26.348;2024-03-02T05:39:42;49.77;;;26.30;;
34565;SDS011;20803;42.676;26.348;2024-03-02T05:42:08;56.37;;;27.00;;
34565;SDS011;20803;42.676;26.348;2024-03-02T05:44:35;53.57;;;26.53;;
34565;SDS011;20803;42.676;26.348;2024-03-02T05:47:03;57.83;;;25.97;;
34565;SDS011;20803;42.676;26.348;2024-03-02T05:49:29;54.27;;;26.43;;
34565;SDS011;20803;42.676;26.348;2024-03-02T05:51:54;49.40;;;26.13;;
34565;SDS011;20803;42.676;26.348;2024-03-02T05:54:20;50.70;;;26.53;;
34565;SDS011;20803;42.676;26.348;2024-03-02T05:56:45;53.43;;;25.77;;
34565;SDS011;20803;42.676;26.348;2024-03-02T05:59:11;45.27;;;24.53;;
34565;SDS011;20803;42.676;26.348;2024-03-02T06:01:44;53.47;;;26.20;;
34565;SDS011;20803;42.676;26.348;2024-03-02T06:04:15;52.50;;;25.93;;
34565;SDS011;20803;42.676;26.348;2024-03-02T06:06:41;50.17;;;24.97;;
34565;SDS011;20803;42.676;26.348;2024-03-02T06:09:07;54.13;;;25.30;;
34565;SDS011;20803;42.676;26.348;2024-03-02T06:11:33;45.93;;;24.27;;
34565;SDS011;20803;42.676;26.348;2024-03-02T06:13:59;48.40;;;25.70;;
34565;SDS011;20803;42.676;26.348;2024-03-02T06:16:25;50.50;;;26.20;;
34565;SDS011;20803;42.676;26.348;2024-03-02T06:18:50;50.50;;;27.97;;
34565;SDS011;20803;42.676;26.348;2024-03-02T06:21:16;55.00;;;29.20;;
34565;SDS011;20803;42.676;26.348;2024-03-02T06:23:43;56.90;;;30.37;;
34565;SDS011;20803;42.676;26.348;2024-03-02T06:26:09;53.80;;;29.90;;
34565;SDS011;20803;42.676;26.348;2024-03-02T06:28:34;50.43;;;28.40;;
34565;SDS011;20803;42.676;26.348;2024-03-02T06:31:00;56.37;;;30.17;;
34565;SDS011;20803;42.676;26.348;2024-03-02T06:33:27;47.37;;;25.57;;
34565;SDS011;20803;42.676;26.348;2024-03-02T06:35:53;53.03;;;28.50;;
34565;SDS011;20803;42.676;26.348;2024-03-02T06:38:19;46.87;;;27.60;;
34565;SDS011;20803;42.676;26.348;2024-03-02T06:40:44;42.47;;;23.97;;
34565;SDS011;20803;42.676;26.348;2024-03-02T06:43:10;40.07;;;23.60;;
34565;SDS011;20803;42.676;26.348;2024-03-02T06:45:36;37.67;;;22.13;;
34565;SDS011;20803;42.676;26.348;2024-03-02T06:48:01;37.77;;;20.43;;
34565;SDS011;20803;42.676;26.348;2024-03-02T06:50:27;41.50;;;20.07;;
34565;SDS011;20803;42.676;26.348;2024-03-02T06:52:53;40.67;;;22.63;;
34565;SDS011;20803;42.676;26.348;2024-03-02T06:55:19;38.13;;;21.07;;
34565;SDS011;20803;42.676;26.348;2024-03-02T06:57:45;44.13;;;23.83;;
34565;SDS011;20803;42.676;26.348;2024-03-02T07:00:10;51.73;;;24.60;;
34565;SDS011;20803;42.676;26.348;2024-03-02T07:02:36;58.57;;;25.17;;
34565;SDS011;20803;42.676;26.348;2024-03-02T07:05:02;52.03;;;24.87;;
34565;SDS011;20803;42.676;26.348;2024-03-02T07:07:28;49.37;;;26.17;;
34565;SDS011;20803;42.676;26.348;2024-03-02T07:09:54;48.93;;;26.47;;
34565;SDS011;20803;42.676;26.348;2024-03-02T07:12:20;42.13;;;24.20;;
34565;SDS011;20803;42.676;26.348;2024-03-02T07:14:45;63.87;;;24.00;;
34565;SDS011;20803;42.676;26.348;2024-03-02T07:17:29;42.23;;;23.27;;
34565;SDS011;20803;42.676;26.348;2024-03-02T07:19:58;45.20;;;19.70;;
34565;SDS011;20803;42.676;26.348;2024-03-02T07:22:24;38.93;;;19.50;;
34565;SDS011;20803;42.676;26.348;2024-03-02T07:24:50;30.47;;;14.70;;
34565;SDS011;20803;42.676;26.348;2024-03-02T07:27:16;32.60;;;15.17;;
34565;SDS011;20803;42.676;26.348;2024-03-02T07:29:42;23.10;;;13.13;;
34565;SDS011;20803;42.676;26.348;2024-03-02T07:32:08;27.60;;;12.47;;
34565;SDS011;20803;42.676;26.348;2024-03-02T07:34:35;30.67;;;14.40;;
34565;SDS011;20803;42.676;26.348;2024-03-02T07:37:01;28.37;;;15.40;;
34565;SDS011;20803;42.676;26.348;2024-03-02T07:39:27;26.37;;;15.50;;
34565;SDS011;20803;42.676;26.348;2024-03-02T07:41:52;22.63;;;14.63;;
34565;SDS011;20803;42.676;26.348;2024-03-02T07:44:18;26.20;;;14.90;;
34565;SDS011;20803;42.676;26.348;2024-03-02T07:46:44;23.57;;;13.47;;
34565;SDS011;20803;42.676;26.348;2024-03-02T07:49:17;27.63;;;15.30;;
34565;SDS011;20803;42.676;26.348;2024-03-02T07:51:43;24.37;;;15.73;;
34565;SDS011;20803;42.676;26.348;2024-03-02T07:54:09;27.97;;;16.80;;
34565;SDS011;20803;42.676;26.348;2024-03-02T07:56:35;34.03;;;17.40;;
34565;SDS011;20803;42.676;26.348;2024-03-02T07:59:03;35.00;;;22.10;;
34565;SDS011;20803;42.676;26.348;2024-03-02T08:01:30;35.23;;;20.00;;
34565;SDS011;20803;42.676;26.348;2024-03-02T08:03:57;32.00;;;19.20;;
34565;SDS011;20803;42.676;26.348;2024-03-02T08:06:26;37.77;;;23.00;;
34565;SDS011;20803;42.676;26.348;2024-03-02T08:08:56;31.63;;;20.57;;
34565;SDS011;20803;42.676;26.348;2024-03-02T08:11:22;34.03;;;18.93;;
34565;SDS011;20803;42.676;26.348;2024-03-02T08:13:48;35.80;;;18.77;;
34565;SDS011;20803;42.676;26.348;2024-03-02T08:16:16;27.93;;;16.63;;
34565;SDS011;20803;42.676;26.348;2024-03-02T08:18:45;38.23;;;18.50;;
34565;SDS011;20803;42.676;26.348;2024-03-02T08:21:14;33.80;;;19.10;;
34565;SDS011;20803;42.676;26.348;2024-03-02T08:23:40;38.07;;;18.57;;
34565;SDS011;20803;42.676;26.348;2024-03-02T08:26:07;31.00;;;16.73;;
34565;SDS011;20803;42.676;26.348;2024-03-02T08:28:33;31.40;;;17.27;;
34565;SDS011;20803;42.676;26.348;2024-03-02T08:30:59;29.37;;;14.97;;
34565;SDS011;20803;42.676;26.348;2024-03-02T08:33:25;29.57;;;14.73;;
34565;SDS011;20803;42.676;26.348;2024-03-02T08:35:50;29.27;;;14.13;;
34565;SDS011;20803;42.676;26.348;2024-03-02T08:38:16;25.63;;;14.00;;
34565;SDS011;20803;42.676;26.348;2024-03-02T08:40:42;22.50;;;13.40;;
34565;SDS011;20803;42.676;26.348;2024-03-02T08:43:07;22.30;;;13.23;;
34565;SDS011;20803;42.676;26.348;2024-03-02T08:45:33;27.27;;;12.27;;
34565;SDS011;20803;42.676;26.348;2024-03-02T08:47:59;22.53;;;13.43;;
34565;SDS011;20803;42.676;26.348;2024-03-02T08:50:25;26.60;;;13.93;;
34565;SDS011;20803;42.676;26.348;2024-03-02T08:52:51;25.63;;;13.50;;
34565;SDS011;20803;42.676;26.348;2024-03-02T08:55:16;24.03;;;13.17;;
34565;SDS011;20803;42.676;26.348;2024-03-02T08:57:42;21.13;;;12.23;;
34565;SDS011;20803;42.676;26.348;2024-03-02T09:00:08;18.23;;;11.07;;
34565;SDS011;20803;42.676;26.348;2024-03-02T09:02:34;18.47;;;11.50;;
34565;SDS011;20803;42.676;26.348;2024-03-02T09:05:00;15.67;;;10.10;;
34565;SDS011;20803;42.676;26.348;2024-03-02T09:07:26;20.33;;;10.97;;
34565;SDS011;20803;42.676;26.348;2024-03-02T09:09:51;20.50;;;11.80;;
34565;SDS011;20803;42.676;26.348;2024-03-02T09:12:17;19.07;;;10.70;;
34565;SDS011;20803;42.676;26.348;2024-03-02T09:14:43;16.77;;;11.03;;
34565;SDS011;20803;42.676;26.348;2024-03-02T09:17:09;20.80;;;11.60;;
34565;SDS011;20803;42.676;26.348;2024-03-02T09:19:36;19.23;;;11.27;;
34565;SDS011;20803;42.676;26.348;2024-03-02T09:22:02;21.07;;;11.93;;
34565;SDS011;20803;42.676;26.348;2024-03-02T09:24:31;19.50;;;13.50;;
34565;SDS011;20803;42.676;26.348;2024-03-02T09:26:58;25.03;;;13.93;;
34565;SDS011;20803;42.676;26.348;2024-03-02T09:29:24;22.57;;;14.30;;
34565;SDS011;20803;42.676;26.348;2024-03-02T09:31:49;24.33;;;14.00;;
34565;SDS011;20803;42.676;26.348;2024-03-02T09:34:16;26.27;;;17.10;;
34565;SDS011;20803;42.676;26.348;2024-03-02T09:36:41;26.93;;;17.73;;
34565;SDS011;20803;42.676;26.348;2024-03-02T09:39:07;28.57;;;16.63;;
34565;SDS011;20803;42.676;26.348;2024-03-02T09:41:34;23.83;;;15.77;;
34565;SDS011;20803;42.676;26.348;2024-03-02T09:44:04;24.13;;;16.10;;
34565;SDS011;20803;42.676;26.348;2024-03-02T09:46:30;25.50;;;17.43;;
34565;SDS011;20803;42.676;26.348;2024-03-02T09:48:56;23.97;;;18.00;;
34565;SDS011;20803;42.676;26.348;2024-03-02T09:51:22;26.50;;;17.50;;
34565;SDS011;20803;42.676;26.348;2024-03-02T09:53:48;30.00;;;17.40;;
34565;SDS011;20803;42.676;26.348;2024-03-02T09:56:14;24.77;;;17.50;;
34565;SDS011;20803;42.676;26.348;2024-03-02T09:58:46;25.13;;;17.67;;
34565;SDS011;20803;42.676;26.348;2024-03-02T10:01:12;26.67;;;17.23;;
34565;SDS011;20803;42.676;26.348;2024-03-02T10:03:37;28.40;;;18.10;;
34565;SDS011;20803;42.676;26.348;2024-03-02T10:08:45;30.00;;;19.67;;
34565;SDS011;20803;42.676;26.348;2024-03-02T10:11:10;26.37;;;18.80;;
34565;SDS011;20803;42.676;26.348;2024-03-02T10:13:36;24.90;;;17.20;;
34565;SDS011;20803;42.676;26.348;2024-03-02T10:16:11;26.43;;;18.23;;
34565;SDS011;20803;42.676;26.348;2024-03-02T10:18:37;30.73;;;17.57;;
34565;SDS011;20803;42.676;26.348;2024-03-02T10:21:15;26.73;;;18.30;;
34565;SDS011;20803;42.676;26.348;2024-03-02T10:23:40;27.07;;;18.90;;
34565;SDS011;20803;42.676;26.348;2024-03-02T10:26:18;26.87;;;19.53;;
34565;SDS011;20803;42.676;26.348;2024-03-02T10:28:47;28.60;;;18.60;;
34565;SDS011;20803;42.676;26.348;2024-03-02T10:31:12;29.57;;;19.40;;
34565;SDS011;20803;42.676;26.348;2024-03-02T10:33:39;21.27;;;14.33;;
34565;SDS011;20803;42.676;26.348;2024-03-02T10:36:05;27.53;;;15.97;;
34565;SDS011;20803;42.676;26.348;2024-03-02T10:38:30;24.70;;;15.10;;
34565;SDS011;20803;42.676;26.348;2024-03-02T10:40:57;27.30;;;16.33;;
34565;SDS011;20803;42.676;26.348;2024-03-02T10:43:24;26.33;;;16.47;;
34565;SDS011;20803;42.676;26.348;2024-03-02T10:45:51;31.07;;;16.87;;
34565;SDS011;20803;42.676;26.348;2024-03-02T10:48:18;33.00;;;17.87;;
34565;SDS011;20803;42.676;26.348;2024-03-02T10:50:44;29.73;;;18.97;;
34565;SDS011;20803;42.676;26.348;2024-03-02T10:53:10;27.83;;;18.60;;
34565;SDS011;20803;42.676;26.348;2024-03-02T10:55:35;29.63;;;17.80;;
34565;SDS011;20803;42.676;26.348;2024-03-02T10:58:01;28.10;;;18.17;;
34565;SDS011;20803;42.676;26.348;2024-03-02T11:00:32;24.30;;;17.70;;
34565;SDS011;20803;42.676;26.348;2024-03-02T11:03:06;35.87;;;19.67;;
34565;SDS011;20803;42.676;26.348;2024-03-02T11:05:40;34.33;;;20.33;;
34565;SDS011;20803;42.676;26.348;2024-03-02T11:08:12;31.00;;;20.90;;
34565;SDS011;20803;42.676;26.348;2024-03-02T11:10:48;24.30;;;16.40;;
34565;SDS011;20803;42.676;26.348;2024-03-02T11:13:16;23.63;;;17.07;;
34565;SDS011;20803;42.676;26.348;2024-03-02T11:15:46;26.20;;;17.70;;
34565;SDS011;20803;42.676;26.348;2024-03-02T11:18:12;29.70;;;18.00;;
34565;SDS011;20803;42.676;26.348;2024-03-02T11:20:39;24.93;;;18.80;;
34565;SDS011;20803;42.676;26.348;2024-03-02T11:23:09;31.90;;;19.60;;
34565;SDS011;20803;42.676;26.348;2024-03-02T11:25:35;29.10;;;19.70;;
34565;SDS011;20803;42.676;26.348;2024-03-02T11:28:04;28.07;;;19.03;;
34565;SDS011;20803;42.676;26.348;2024-03-02T11:33:06;31.17;;;21.07;;
34565;SDS011;20803;42.676;26.348;2024-03-02T11:35:36;32.37;;;21.17;;
34565;SDS011;20803;42.676;26.348;2024-03-02T11:38:05;35.90;;;22.63;;
34565;SDS011;20803;42.676;26.348;2024-03-02T11:40:32;32.60;;;22.37;;
34565;SDS011;20803;42.676;26.348;2024-03-02T11:42:59;30.03;;;21.77;;
34565;SDS011;20803;42.676;26.348;2024-03-02T11:45:28;29.67;;;20.63;;
34565;SDS011;20803;42.676;26.348;2024-03-02T11:47:54;29.27;;;21.67;;
34565;SDS011;20803;42.676;26.348;2024-03-02T11:50:40;33.33;;;22.73;;
34565;SDS011;20803;42.676;26.348;2024-03-02T11:53:08;31.67;;;22.13;;
34565;SDS011;20803;42.676;26.348;2024-03-02T11:55:35;28.80;;;19.77;;
34565;SDS011;20803;42.676;26.348;2024-03-02T11:58:04;29.20;;;21.10;;
34565;SDS011;20803;42.676;26.348;2024-03-02T12:00:30;32.47;;;20.70;;
34565;SDS011;20803;42.676;26.348;2024-03-02T12:03:00;28.90;;;20.07;;
34565;SDS011;20803;42.676;26.348;2024-03-02T12:05:30;32.47;;;21.30;;
34565;SDS011;20803;42.676;26.348;2024-03-02T12:07:57;29.83;;;20.53;;
34565;SDS011;20803;42.676;26.348;2024-03-02T12:10:23;28.13;;;20.13;;
34565;SDS011;20803;42.676;26.348;2024-03-02T12:12:54;28.47;;;21.47;;
34565;SDS011;20803;42.676;26.348;2024-03-02T12:15:30;31.63;;;21.27;;
34565;SDS011;20803;42.676;26.348;2024-03-02T12:17:58;32.13;;;21.60;;
34565;SDS011;20803;42.676;26.348;2024-03-02T12:20:25;30.20;;;20.43;;
34565;SDS011;20803;42.676;26.348;2024-03-02T12:22:54;35.43;;;22.43;;
34565;SDS011;20803;42.676;26.348;2024-03-02T12:25:21;26.47;;;19.97;;
34565;SDS011;20803;42.676;26.348;2024-03-02T12:27:49;23.20;;;17.53;;
34565;SDS011;20803;42.676;26.348;2024-03-02T12:30:16;22.70;;;15.80;;
34565;SDS011;20803;42.676;26.348;2024-03-02T12:32:42;31.53;;;16.27;;
34565;SDS011;20803;42.676;26.348;2024-03-02T12:35:09;26.87;;;16.10;;
34565;SDS011;20803;42.676;26.348;2024-03-02T12:37:49;21.23;;;14.10;;
34565;SDS011;20803;42.676;26.348;2024-03-02T12:40:15;19.47;;;12.97;;
34565;SDS011;20803;42.676;26.348;2024-03-02T12:42:43;18.97;;;13.10;;
34565;SDS011;20803;42.676;26.348;2024-03-02T12:45:10;17.80;;;12.60;;
34565;SDS011;20803;42.676;26.348;2024-03-02T12:47:36;21.27;;;13.03;;
34565;SDS011;20803;42.676;26.348;2024-03-02T12:50:03;19.47;;;13.50;;
34565;SDS011;20803;42.676;26.348;2024-03-02T12:52:29;17.37;;;12.07;;
34565;SDS011;20803;42.676;26.348;2024-03-02T12:54:57;19.53;;;12.97;;
34565;SDS011;20803;42.676;26.348;2024-03-02T12:57:31;20.77;;;13.03;;
34565;SDS011;20803;42.676;26.348;2024-03-02T13:00:00;22.27;;;13.47;;
34565;SDS011;20803;42.676;26.348;2024-03-02T13:02:39;18.47;;;11.77;;
34565;SDS011;20803;42.676;26.348;2024-03-02T13:05:06;19.73;;;12.77;;
34565;SDS011;20803;42.676;26.348;2024-03-02T13:07:36;19.33;;;12.70;;
34565;SDS011;20803;42.676;26.348;2024-03-02T13:10:03;16.30;;;11.77;;
34565;SDS011;20803;42.676;26.348;2024-03-02T13:12:29;19.67;;;12.30;;
34565;SDS011;20803;42.676;26.348;2024-03-02T13:14:55;20.00;;;12.70;;
34565;SDS011;20803;42.676;26.348;2024-03-02T13:17:23;16.50;;;12.90;;
34565;SDS011;20803;42.676;26.348;2024-03-02T13:19:53;19.73;;;13.43;;
34565;SDS011;20803;42.676;26.348;2024-03-02T13:22:20;19.73;;;12.43;;
34565;SDS011;20803;42.676;26.348;2024-03-02T13:24:46;22.60;;;13.27;;
34565;SDS011;20803;42.676;26.348;2024-03-02T13:27:12;19.43;;;12.33;;
34565;SDS011;20803;42.676;26.348;2024-03-02T13:29:38;20.97;;;12.60;;
34565;SDS011;20803;42.676;26.348;2024-03-02T13:32:03;22.13;;;12.20;;
34565;SDS011;20803;42.676;26.348;2024-03-02T13:34:29;19.87;;;12.17;;
34565;SDS011;20803;42.676;26.348;2024-03-02T13:36:55;19.57;;;12.73;;
34565;SDS011;20803;42.676;26.348;2024-03-02T13:39:20;18.77;;;12.67;;
34565;SDS011;20803;42.676;26.348;2024-03-02T13:41:46;20.27;;;13.03;;
34565;SDS011;20803;42.676;26.348;2024-03-02T13:44:18;16.57;;;13.20;;
34565;SDS011;20803;42.676;26.348;2024-03-02T13:46:46;24.87;;;14.47;;
34565;SDS011;20803;42.676;26.348;2024-03-02T13:49:13;25.60;;;14.83;;
34565;SDS011;20803;42.676;26.348;2024-03-02T13:51:39;20.33;;;13.70;;
34565;SDS011;20803;42.676;26.348;2024-03-02T13:54:04;25.57;;;14.70;;
34565;SDS011;20803;42.676;26.348;2024-03-02T13:56:30;19.97;;;13.97;;
34565;SDS011;20803;42.676;26.348;2024-03-02T13:58:57;19.37;;;12.80;;
34565;SDS011;20803;42.676;26.348;2024-03-02T14:01:23;22.27;;;14.30;;
34565;SDS011;20803;42.676;26.348;2024-03-02T14:03:48;19.40;;;13.00;;
34565;SDS011;20803;42.676;26.348;2024-03-02T14:06:14;23.90;;;13.43;;
34565;SDS011;20803;42.676;26.348;2024-03-02T14:08:40;21.93;;;13.37;;
34565;SDS011;20803;42.676;26.348;2024-03-02T14:11:09;19.80;;;12.67;;
34565;SDS011;20803;42.676;26.348;2024-03-02T14:13:40;19.30;;;12.13;;